Time;durP1;ratioP1;P1;durP2;ratioP2;P2;SDS_P1;SDS_P2;PMS_P1;PMS_P2;Temp;Humidity;BMP_temperature;BMP_pressure;BME280_temperature;BME280_humidity;BME280_pressure;Samples;Min_cycle;Max_cycle;Signal;HPM_P1;HPM_P2
2022/05/09 00:02:25;;;;;;;8.33;7.57;;;;;;;16.74;55.61;99486.09;7036257;28;20221;-80
2022/05/09 00:05:48;;;;;;;8.27;7.47;;;;;;;16.67;55.61;99487.22;7036441;28;20632;-80
2022/05/09 00:09:10;;;;;;;8.50;7.70;;;;;;;16.64;55.69;99479.53;7036058;28;20312;-80
2022/05/09 00:12:32;;;;;;;9.30;8.40;;;;;;;16.18;56.24;99450.06;7036266;28;20382;-80
2022/05/09 00:15:53;;;;;;;8.83;8.03;;;;;;;16.30;56.58;99486.34;7011831;28;20214;-80
2022/05/09 00:19:17;;;;;;;10.37;8.43;;;;;;;16.06;56.99;99462.75;7019822;28;20607;-80
2022/05/09 00:22:51;;;;;;;10.77;9.77;;;;;;;14.84;61.00;99493.25;7007583;28;20235;-80
2022/05/09 00:26:12;;;;;;;11.30;10.10;;;;;;;14.93;62.19;99483.00;7007103;28;20215;-80
2022/05/09 00:29:34;;;;;;;10.23;9.33;;;;;;;15.56;60.54;99487.41;7008422;28;20282;-80
2022/05/09 00:32:56;;;;;;;10.03;8.40;;;;;;;15.40;60.53;99458.09;7008348;28;20232;-80
2022/05/09 00:36:17;;;;;;;10.00;8.97;;;;;;;15.82;59.71;99484.50;7011430;28;20230;-80
2022/05/09 00:39:40;;;;;;;9.23;8.33;;;;;;;16.32;57.56;99489.69;7009112;28;20210;-80
2022/05/09 00:43:02;;;;;;;8.97;8.17;;;;;;;16.11;57.35;99479.19;7007999;28;20221;-80
2022/05/09 00:46:30;;;;;;;9.27;8.37;;;;;;;15.80;57.50;99497.50;7007331;28;20214;-81
2022/05/09 00:49:55;;;;;;;9.83;8.83;;;;;;;15.28;58.93;99443.50;7007654;28;20286;-80
2022/05/09 00:53:17;;;;;;;9.00;8.10;;;;;;;15.82;58.28;99488.03;7007715;28;20228;-80
2022/05/09 00:56:42;;;;;;;9.93;8.97;;;;;;;15.65;58.09;99489.69;7007611;28;20206;-79
2022/05/09 01:00:07;;;;;;;9.87;8.93;;;;;;;15.73;58.41;99483.94;7006983;28;20211;-80
2022/05/09 01:03:31;;;;;;;8.80;7.90;;;;;;;15.91;57.01;99489.44;7007880;28;20614;-80
2022/05/09 01:06:53;;;;;;;9.47;8.57;;;;;;;15.42;58.37;99494.00;7006703;28;20249;-80
2022/05/09 01:10:16;;;;;;;9.83;8.93;;;;;;;15.47;58.19;99480.59;7007684;28;20214;-80
2022/05/09 01:13:42;;;;;;;9.23;8.40;;;;;;;15.77;57.80;99490.63;7010297;28;20276;-80
2022/05/09 01:17:05;;;;;;;9.60;8.60;;;;;;;15.66;56.86;99488.63;7007202;28;20289;-79
2022/05/09 01:20:26;;;;;;;9.33;8.47;;;;;;;15.70;56.85;99478.13;7006898;28;20204;-80
2022/05/09 01:23:49;;;;;;;8.77;7.97;;;;;;;15.47;57.55;99492.31;7006848;28;20836;-80
2022/05/09 01:27:11;;;;;;;8.73;7.93;;;;;;;15.50;57.39;99488.28;7006510;28;20622;-80
2022/05/09 01:30:37;;;;;;;10.73;8.60;;;;;;;15.06;58.12;99445.72;7011011;28;20575;-79
2022/05/09 01:34:00;;;;;;;9.27;8.37;;;;;;;15.17;58.03;99460.50;7030571;28;20223;-80
2022/05/09 01:37:22;;;;;;;8.90;8.10;;;;;;;15.03;57.71;99464.31;7034548;28;20222;-80
2022/05/09 01:40:45;;;;;;;9.00;8.20;;;;;;;15.35;57.88;99483.19;7034269;28;20214;-81
2022/05/09 01:44:10;;;;;;;9.10;8.20;;;;;;;15.29;57.50;99477.75;7034921;28;20250;-80
2022/05/09 01:51:11;;;;;;;10.37;9.23;;;;;;;14.72;57.95;99469.72;7039528;28;20306;-80
2022/05/09 01:54:34;;;;;;;10.70;9.20;;;;;;;14.60;58.87;99458.69;7039731;28;20235;-81
2022/05/09 01:57:57;;;;;;;10.07;8.87;;;;;;;14.88;58.47;99494.50;7039478;28;20205;-80
2022/05/09 02:01:20;;;;;;;9.70;8.80;;;;;;;14.48;58.86;99489.41;7037820;28;20272;-80
2022/05/09 02:04:42;;;;;;;8.97;8.07;;;;;;;14.71;58.23;99468.03;7039009;28;20684;-80
2022/05/09 02:08:04;;;;;;;9.37;8.47;;;;;;;14.96;58.21;99487.97;7038351;28;20202;-80
2022/05/09 02:11:25;;;;;;;9.63;8.73;;;;;;;14.37;58.57;99427.69;7038880;28;20247;-80
2022/05/09 02:14:49;;;;;;;9.60;8.60;;;;;;;15.01;58.23;99491.72;7039702;28;20660;-80
2022/05/09 02:18:10;;;;;;;9.97;8.93;;;;;;;14.74;58.30;99494.78;7039062;28;20217;-80
2022/05/09 02:21:32;;;;;;;9.57;8.43;;;;;;;14.53;57.67;99410.94;7039249;28;20309;-80
2022/05/09 02:24:53;;;;;;;10.77;9.60;;;;;;;14.67;58.77;99491.22;7038797;28;20210;-80
2022/05/09 02:28:15;;;;;;;11.60;9.60;;;;;;;14.85;57.99;99485.94;7038057;28;20211;-80
2022/05/09 02:31:38;;;;;;;10.77;7.93;;;;;;;15.07;57.21;99495.44;7040105;28;20240;-81
2022/05/09 02:35:00;;;;;;;9.93;8.93;;;;;;;14.42;57.76;99457.72;7060711;28;20203;-80
2022/05/09 02:38:24;;;;;;;10.77;9.57;;;;;;;14.24;58.96;99495.53;7046802;28;20217;-81
2022/05/09 02:41:57;;;;;;;10.67;9.57;;;;;;;14.41;59.34;99473.19;7037134;28;20230;-81
2022/05/09 02:45:18;;;;;;;10.30;9.30;;;;;;;14.59;58.41;99499.63;6949943;28;20214;-80
2022/05/09 02:48:42;;;;;;;9.97;9.07;;;;;;;14.68;58.16;99501.06;6949266;28;20239;-80
2022/05/09 02:52:04;;;;;;;10.70;9.60;;;;;;;14.44;58.21;99483.59;6950402;28;20813;-81
2022/05/09 02:55:26;;;;;;;10.03;9.03;;;;;;;14.36;58.63;99488.41;6950685;28;20218;-80
2022/05/09 02:58:47;;;;;;;10.73;9.73;;;;;;;14.70;57.87;99505.19;6950748;28;20213;-80
2022/05/09 03:02:09;;;;;;;9.80;8.90;;;;;;;14.41;58.16;99496.75;6949461;28;20309;-81
2022/05/09 03:05:31;;;;;;;11.03;9.63;;;;;;;14.35;58.60;99508.44;6949673;28;20235;-80
2022/05/09 03:08:53;;;;;;;10.73;9.63;;;;;;;14.29;59.17;99501.16;6982059;28;20244;-80
2022/05/09 03:12:18;;;;;;;10.63;9.63;;;;;;;14.05;59.67;99501.78;7036321;28;20230;-79
2022/05/09 03:15:41;;;;;;;10.87;9.77;;;;;;;14.01;59.60;99509.53;7030418;28;20196;-80
2022/05/09 03:19:03;;;;;;;10.57;9.47;;;;;;;13.54;59.98;99433.00;7013955;28;20300;-80
2022/05/09 03:22:27;;;;;;;10.57;9.50;;;;;;;14.31;58.94;99505.34;7007218;28;20226;-80
2022/05/09 03:26:01;;;;;;;10.23;9.27;;;;;;;13.82;58.85;99474.28;7009308;28;20323;-80
2022/05/09 03:29:25;;;;;;;10.87;9.87;;;;;;;14.40;58.66;99509.47;7010900;28;20272;-80
2022/05/09 03:32:47;;;;;;;13.23;9.33;;;;;;;14.58;58.21;99514.25;7027274;28;20255;-80
2022/05/09 03:36:09;;;;;;;11.67;9.77;;;;;;;14.32;58.32;99506.16;7020247;28;20252;-80
2022/05/09 03:39:36;;;;;;;10.17;9.17;;;;;;;14.00;58.26;99433.81;7024916;28;20231;-80
2022/05/09 03:42:59;;;;;;;9.77;8.87;;;;;;;14.32;57.91;99479.88;7030711;28;20213;-81
2022/05/09 03:46:21;;;;;;;11.63;10.53;;;;;;;14.22;58.26;99503.06;7024878;28;20200;-80
2022/05/09 03:49:43;;;;;;;10.47;9.47;;;;;;;14.33;58.07;99514.09;7010498;28;20212;-81
2022/05/09 03:53:04;;;;;;;11.00;9.90;;;;;;;13.73;58.59;99486.38;7010158;28;20247;-79
2022/05/09 03:56:27;;;;;;;10.63;9.63;;;;;;;14.18;58.20;99505.31;7009140;28;20206;-80
2022/05/09 03:59:49;;;;;;;9.87;8.97;;;;;;;14.10;57.94;99493.88;7007919;28;20232;-80
2022/05/09 04:03:11;;;;;;;12.67;9.90;;;;;;;13.90;57.61;99525.56;7009158;28;20232;-80
2022/05/09 04:06:33;;;;;;;11.20;10.13;;;;;;;13.66;59.55;99497.22;7008857;28;20237;-80
2022/05/09 04:09:55;;;;;;;9.70;8.83;;;;;;;14.12;58.74;99524.31;7008580;28;20217;-80
2022/05/09 04:13:18;;;;;;;10.13;9.23;;;;;;;14.06;58.15;99507.00;7008504;28;20236;-80
2022/05/09 04:16:52;;;;;;;9.57;8.73;;;;;;;14.29;57.45;99504.69;7007421;28;20202;-80
2022/05/09 04:20:14;;;;;;;10.23;8.77;;;;;;;13.97;56.98;99478.44;7007717;28;20199;-80
2022/05/09 04:23:38;;;;;;;10.17;9.17;;;;;;;14.37;56.61;99518.03;7008639;28;20228;-81
2022/05/09 04:27:00;;;;;;;10.40;9.40;;;;;;;14.38;56.45;99502.59;7008120;28;20209;-80
2022/05/09 04:30:23;;;;;;;9.83;8.83;;;;;;;14.24;57.20;99509.09;7008402;28;20213;-80
2022/05/09 04:33:45;;;;;;;10.20;8.97;;;;;;;14.46;56.90;99514.03;7007882;28;20308;-81
2022/05/09 04:37:06;;;;;;;10.60;9.17;;;;;;;13.99;57.26;99475.53;7007825;28;20201;-81
2022/05/09 04:40:32;;;;;;;12.30;10.33;;;;;;;14.31;57.37;99532.47;7011219;28;20217;-81
2022/05/09 04:43:53;;;;;;;9.93;9.03;;;;;;;14.54;57.51;99531.97;7029531;28;20248;-81
2022/05/09 04:47:16;;;;;;;10.57;9.57;;;;;;;14.67;56.73;99535.50;7034790;28;20300;-81
2022/05/09 04:50:41;;;;;;;11.57;10.47;;;;;;;13.53;58.51;99507.22;7013340;28;20198;-81
2022/05/09 04:54:02;;;;;;;11.27;10.17;;;;;;;13.93;58.78;99501.56;7024497;28;20273;-81
2022/05/09 04:57:24;;;;;;;10.50;9.50;;;;;;;14.03;59.26;99525.56;7012292;28;20237;-81
2022/05/09 05:00:47;;;;;;;11.40;10.17;;;;;;;13.91;59.60;99541.63;7015730;28;20198;-81
2022/05/09 05:04:10;;;;;;;12.43;11.07;;;;;;;13.98;59.94;99544.34;7025365;28;20213;-81
2022/05/09 05:07:31;;;;;;;10.77;9.67;;;;;;;14.61;58.60;99549.94;7007536;28;20195;-79
2022/05/09 05:10:54;;;;;;;12.03;10.80;;;;;;;14.51;57.04;99544.09;7018701;28;20369;-81
2022/05/09 05:14:16;;;;;;;14.17;10.53;;;;;;;14.22;59.18;99549.97;7035659;28;20237;-81
2022/05/09 05:17:38;;;;;;;11.07;9.60;;;;;;;14.75;58.68;99532.53;7029599;28;20675;-81
2022/05/09 05:21:08;;;;;;;9.80;8.80;;;;;;;15.20;57.54;99550.53;7034983;28;20320;-81
2022/05/09 05:24:30;;;;;;;9.83;8.70;;;;;;;15.69;56.21;99533.56;7008066;28;20271;-81
2022/05/09 05:27:52;;;;;;;12.43;9.47;;;;;;;15.88;55.48;99536.13;7006666;28;20213;-81
2022/05/09 05:31:15;;;;;;;11.57;10.13;;;;;;;16.15;55.33;99506.81;7007715;28;20831;-81
2022/05/09 05:34:37;;;;;;;9.67;8.80;;;;;;;16.62;54.48;99534.19;7008049;28;20212;-81
2022/05/09 05:38:00;;;;;;;10.30;9.37;;;;;;;17.32;53.00;99552.63;7007493;28;20576;-80
2022/05/09 05:41:22;;;;;;;12.20;9.53;;;;;;;17.43;53.12;99540.13;7034013;28;20231;-81
2022/05/09 05:44:45;;;;;;;9.70;8.80;;;;;;;17.36;53.21;99542.09;7035891;28;20365;-81
2022/05/09 05:48:07;;;;;;;11.03;9.93;;;;;;;17.27;54.12;99551.66;7034466;28;20205;-81
2022/05/09 05:51:29;;;;;;;12.43;9.47;;;;;;;17.91;52.75;99540.88;7011983;28;20241;-81
2022/05/09 05:54:52;;;;;;;10.27;9.27;;;;;;;18.01;53.03;99533.78;7007901;28;20198;-81
2022/05/09 05:58:13;;;;;;;9.70;8.80;;;;;;;19.28;50.38;99552.88;7007586;28;20213;-81
2022/05/09 06:01:35;;;;;;;9.63;8.50;;;;;;;19.17;49.39;99518.16;7005508;28;20222;-81
2022/05/09 06:04:56;;;;;;;9.50;8.50;;;;;;;19.52;49.42;99552.50;7007294;28;20211;-81
2022/05/09 06:08:18;;;;;;;10.50;9.50;;;;;;;19.49;49.39;99549.44;7006516;28;20214;-81
2022/05/09 06:11:41;;;;;;;10.53;9.37;;;;;;;19.07;50.81;99539.81;7007406;28;20230;-81
2022/05/09 06:18:43;;;;;;;10.60;9.60;;;;;;;19.77;50.45;99563.13;7011686;28;20226;-80
2022/05/09 06:22:05;;;;;;;11.53;9.53;;;;;;;20.07;50.52;99564.53;7010343;28;20227;-81
2022/05/09 06:25:27;;;;;;;10.10;9.20;;;;;;;19.59;50.54;99566.91;7007453;28;20206;-81
2022/05/09 06:28:50;;;;;;;16.77;10.37;;;;;;;20.24;49.47;99545.38;7006012;28;20202;-80
2022/05/09 06:32:12;;;;;;;10.93;9.53;;;;;;;19.74;51.10;99549.94;7008430;28;20708;-81
2022/05/09 06:35:33;;;;;;;11.87;10.67;;;;;;;20.55;49.53;99563.94;7013928;28;20206;-82
2022/05/09 06:38:57;;;;;;;13.07;10.90;;;;;;;20.88;48.87;99552.91;7013247;28;20217;-82
2022/05/09 06:42:18;;;;;;;11.30;10.10;;;;;;;21.04;48.07;99527.41;7023526;28;20238;-82
2022/05/09 06:45:42;;;;;;;11.37;9.27;;;;;;;22.21;45.19;99557.50;7026231;28;20209;-83
2022/05/09 06:49:03;;;;;;;12.67;9.70;;;;;;;21.95;45.51;99558.38;7033251;28;20239;-82
2022/05/09 06:52:25;;;;;;;11.17;10.13;;;;;;;21.52;47.44;99556.53;7055223;28;20364;-82
2022/05/09 06:55:48;;;;;;;9.30;8.50;;;;;;;22.23;45.72;99556.16;7044974;28;20214;-82
2022/05/09 06:59:09;;;;;;;11.67;8.20;;;;;;;22.53;44.43;99558.38;7043151;28;20209;-83
2022/05/09 07:02:32;;;;;;;8.80;8.00;;;;;;;23.27;43.24;99540.66;7039481;28;20858;-81
2022/05/09 07:05:55;;;;;;;8.97;8.17;;;;;;;23.21;43.29;99552.72;7033426;28;20216;-81
2022/05/09 07:09:17;;;;;;;9.07;8.10;;;;;;;22.52;43.80;99521.78;7035925;28;20217;-81
2022/05/09 07:12:43;;;;;;;8.63;7.83;;;;;;;23.02;44.25;99551.53;7019562;28;20231;-81
2022/05/09 07:16:05;;;;;;;8.03;7.33;;;;;;;22.43;45.46;99533.56;7010997;28;20219;-81
2022/05/09 07:19:28;;;;;;;8.77;8.07;;;;;;;21.89;46.57;99562.97;7015048;28;20209;-81
2022/05/09 07:22:51;;;;;;;8.20;7.30;;;;;;;23.55;43.35;99552.03;7011569;28;20332;-80
2022/05/09 07:26:13;;;;;;;7.83;7.03;;;;;;;23.18;44.17;99558.78;7012641;28;20222;-80
2022/05/09 07:29:35;;;;;;;13.77;7.63;;;;;;;23.17;43.67;99552.44;7014552;28;20209;-80
2022/05/09 07:32:57;;;;;;;7.70;6.20;;;;;;;24.00;42.09;99540.31;7013872;28;20324;-80
2022/05/09 07:36:20;;;;;;;6.30;5.70;;;;;;;24.00;40.45;99551.34;7014947;28;20205;-80
2022/05/09 07:39:41;;;;;;;6.63;6.03;;;;;;;22.96;41.44;99538.84;7015154;28;20263;-80
2022/05/09 07:43:03;;;;;;;6.63;5.83;;;;;;;22.43;42.94;99561.03;7015272;28;20226;-80
2022/05/09 07:46:25;;;;;;;6.37;5.87;;;;;;;21.45;45.25;99555.06;7013594;28;20215;-80
2022/05/09 07:49:46;;;;;;;6.37;5.60;;;;;;;22.43;43.31;99563.78;7014286;28;20209;-80
2022/05/09 07:53:12;;;;;;;6.57;5.97;;;;;;;22.52;43.04;99559.44;7015220;28;20272;-80
2022/05/09 07:56:33;;;;;;;6.60;5.97;;;;;;;22.78;41.96;99490.59;7015664;28;20221;-80
2022/05/09 07:59:58;;;;;;;6.70;6.13;;;;;;;21.93;43.87;99555.06;7015436;28;20647;-80
2022/05/09 08:03:23;;;;;;;6.53;6.00;;;;;;;22.79;42.37;99522.53;7021846;28;20206;-80
2022/05/09 08:06:45;;;;;;;6.50;5.80;;;;;;;22.73;42.54;99550.25;7027774;28;20216;-80
2022/05/09 08:10:10;;;;;;;6.43;5.83;;;;;;;23.35;41.92;99543.72;7026053;28;20201;-81
2022/05/09 08:13:34;;;;;;;7.80;5.60;;;;;;;23.78;41.36;99547.97;7042355;28;20222;-82
2022/05/09 08:16:56;;;;;;;6.77;5.80;;;;;;;24.07;40.12;99549.97;7043464;28;20220;-83
2022/05/09 08:20:19;;;;;;;6.67;5.97;;;;;;;24.22;40.04;99549.16;7038032;28;20235;-81
2022/05/09 08:23:41;;;;;;;5.97;5.20;;;;;;;24.80;39.80;99540.31;7016666;28;20304;-81
2022/05/09 08:27:05;;;;;;;7.03;6.43;;;;;;;24.65;40.25;99549.44;7010838;28;20233;-81
2022/05/09 08:30:29;;;;;;;6.17;5.47;;;;;;;25.92;37.02;99544.03;7010381;28;20613;-81
2022/05/09 08:33:52;;;;;;;8.43;5.57;;;;;;;23.93;40.71;99551.63;7031737;28;20285;-82
2022/05/09 08:37:14;;;;;;;6.73;6.13;;;;;;;24.05;39.35;99540.31;7021687;28;20245;-81
2022/05/09 08:40:38;;;;;;;6.40;5.70;;;;;;;25.19;38.47;99546.81;7025690;28;20208;-81
2022/05/09 08:44:11;;;;;;;7.47;6.10;;;;;;;24.38;39.71;99524.09;7033124;28;20221;-81
2022/05/09 08:47:50;;;;;;;6.50;5.73;;;;;;;24.12;40.26;99536.19;7038225;28;20356;-82
2022/05/09 08:51:17;;;;;;;6.47;5.27;;;;;;;24.91;38.67;99533.66;7038076;28;20686;-80
2022/05/09 08:54:39;;;;;;;5.40;4.90;;;;;;;24.14;39.09;99498.16;7036964;28;20225;-83
2022/05/09 08:58:07;;;;;;;6.23;5.17;;;;;;;24.84;38.68;99556.00;7033957;28;20215;-83
2022/05/09 09:01:34;;;;;;;6.27;5.67;;;;;;;23.59;41.11;99533.06;7032601;28;20228;-82
2022/05/09 09:04:58;;;;;;;5.83;5.33;;;;;;;24.66;39.15;99490.41;7035797;28;20222;-83
2022/05/09 09:08:25;;;;;;;5.77;5.37;;;;;;;24.52;40.01;99552.75;7026036;28;20631;-81
2022/05/09 09:11:51;;;;;;;5.63;5.13;;;;;;;25.21;37.59;99548.19;7005850;28;20228;-82
2022/05/09 09:15:22;;;;;;;7.40;5.30;;;;;;;24.47;39.94;99527.91;7005490;28;20211;-83
2022/05/09 09:18:55;;;;;;;7.13;5.40;;;;;;;24.67;38.48;99547.22;7004965;28;20218;-82
2022/05/09 09:22:39;;;;;;;5.70;5.20;;;;;;;24.71;37.71;99533.72;7005568;28;20220;-83
2022/05/09 09:26:03;;;;;;;5.10;4.70;;;;;;;25.94;36.55;99524.38;7005002;28;20591;-82
2022/05/09 09:29:28;;;;;;;6.40;5.03;;;;;;;26.46;35.41;99539.16;7027804;28;20243;-83
2022/05/09 09:32:54;;;;;;;5.30;4.80;;;;;;;26.62;36.01;99534.34;7034305;28;20320;-82
2022/05/09 09:36:18;;;;;;;6.93;5.40;;;;;;;27.57;33.21;99531.31;7033612;28;20205;-82
2022/05/09 09:39:40;;;;;;;6.10;4.90;;;;;;;27.16;34.53;99516.34;7033735;28;20201;-82
2022/05/09 09:43:02;;;;;;;5.80;5.30;;;;;;;26.90;33.75;99528.78;7020756;28;20222;-85
2022/05/09 09:46:24;;;;;;;5.07;4.50;;;;;;;27.86;33.05;99520.13;7024862;28;20218;-83
2022/05/09 09:49:48;;;;;;;4.87;4.47;;;;;;;27.02;33.80;99529.19;7031150;28;20244;-84
2022/05/09 09:53:13;;;;;;;5.50;5.00;;;;;;;27.56;33.37;99524.13;7031409;28;20282;-80
2022/05/09 09:56:34;;;;;;;5.03;4.60;;;;;;;25.65;35.40;99520.69;7018243;28;20193;-82
2022/05/09 09:59:57;;;;;;;5.27;4.77;;;;;;;26.36;33.49;99455.47;7007523;28;20201;-81
2022/05/09 10:03:21;;;;;;;5.67;5.10;;;;;;;26.15;34.48;99512.06;7004658;28;20221;-77
2022/05/09 10:07:01;;;;;;;5.57;5.07;;;;;;;26.89;34.14;99521.59;7007247;28;20216;-78
2022/05/09 10:10:26;;;;;;;6.23;5.17;;;;;;;27.75;33.67;99508.34;7012938;28;20204;-86
2022/05/09 10:13:51;;;;;;;5.63;4.83;;;;;;;29.20;30.53;99511.34;7013222;28;20235;-79
2022/05/09 10:17:19;;;;;;;7.20;5.47;;;;;;;29.41;30.82;99473.69;7013472;28;20202;-82
2022/05/09 10:20:42;;;;;;;5.87;4.97;;;;;;;29.17;30.36;99491.72;7014975;28;20299;-79
2022/05/09 10:27:45;;;;;;;5.03;4.47;;;;;;;28.77;30.55;99484.19;7013694;28;20638;-81
2022/05/09 10:31:14;;;;;;;6.10;4.53;;;;;;;28.02;30.93;99480.75;7014599;28;20270;-81
2022/05/09 10:34:41;;;;;;;4.60;4.20;;;;;;;29.23;29.78;99471.03;7014176;28;20226;-81
2022/05/09 10:38:05;;;;;;;4.70;4.30;;;;;;;29.91;29.75;99475.31;7013711;28;20693;-81
2022/05/09 10:41:31;;;;;;;4.87;4.47;;;;;;;30.34;29.05;99470.09;7013698;28;20260;-81
2022/05/09 10:44:59;;;;;;;7.87;4.33;;;;;;;29.89;29.23;99477.59;7014263;28;20188;-81
2022/05/09 10:48:28;;;;;;;4.87;4.47;;;;;;;28.30;31.30;99482.50;7014779;28;20194;-82
2022/05/09 10:51:57;;;;;;;6.10;4.10;;;;;;;28.62;28.85;99456.72;7013637;28;20223;-82
2022/05/09 10:55:22;;;;;;;4.70;4.30;;;;;;;28.27;29.20;99451.78;7014405;28;20212;-82
2022/05/09 10:58:48;;;;;;;4.40;4.00;;;;;;;28.48;30.21;99476.09;7013971;28;20217;-82
2022/05/09 11:02:19;;;;;;;4.73;4.33;;;;;;;28.07;29.52;99441.03;7014798;28;20235;-82
2022/05/09 11:06:10;;;;;;;4.30;3.97;;;;;;;29.49;27.51;99442.38;7014131;28;20222;-81
2022/05/09 11:09:45;;;;;;;5.63;4.63;;;;;;;29.30;28.68;99452.81;7012255;28;20237;-82
2022/05/09 11:13:15;;;;;;;4.50;4.07;;;;;;;30.14;26.67;99448.38;7018983;28;20235;-82
2022/05/09 11:16:42;;;;;;;3.83;3.53;;;;;;;30.16;27.00;99393.22;7017830;28;20206;-81
2022/05/09 11:20:12;;;;;;;4.33;3.73;;;;;;;29.68;27.82;99443.09;7014560;28;20209;-82
2022/05/09 11:23:40;;;;;;;4.53;4.03;;;;;;;29.38;28.68;99443.72;7023407;28;20223;-81
2022/05/09 11:27:09;;;;;;;4.40;4.03;;;;;;;28.56;29.63;99452.38;7042773;28;20197;-82
2022/05/09 11:30:33;;;;;;;4.23;3.80;;;;;;;29.06;28.40;99455.00;7029379;28;20205;-82
2022/05/09 11:34:13;;;;;;;4.40;4.00;;;;;;;28.37;29.32;99435.78;7027574;28;20231;-82
2022/05/09 11:37:50;;;;;;;4.83;3.83;;;;;;;29.43;27.91;99426.94;7026076;28;20211;-83
2022/05/09 11:41:21;;;;;;;4.90;3.93;;;;;;;28.99;28.38;99412.94;7053700;28;20207;-82
2022/05/09 11:44:47;;;;;;;5.53;3.77;;;;;;;30.05;26.06;99409.34;7043828;28;20199;-82
2022/05/09 11:48:17;;;;;;;4.10;3.80;;;;;;;29.96;26.58;99418.75;7045284;28;20233;-82
2022/05/09 11:51:45;;;;;;;3.87;3.50;;;;;;;29.14;28.64;99414.56;7047221;28;20226;-82
2022/05/09 11:55:12;;;;;;;4.80;3.90;;;;;;;30.22;28.14;99426.19;7048989;28;20245;-81
2022/05/09 11:58:35;;;;;;;4.60;4.10;;;;;;;29.34;27.29;99414.94;7055208;28;20208;-82
2022/05/09 12:02:00;;;;;;;6.50;3.70;;;;;;;29.62;27.87;99432.38;7056402;28;20225;-82
2022/05/09 12:05:49;;;;;;;5.83;4.00;;;;;;;29.81;26.50;99424.69;7055682;28;20209;-82
2022/05/09 12:09:15;;;;;;;4.00;3.70;;;;;;;29.57;27.39;99418.59;7056443;28;20198;-82
2022/05/09 12:12:49;;;;;;;4.20;3.83;;;;;;;28.75;27.56;99420.63;7056051;28;20224;-82
2022/05/09 12:16:11;;;;;;;4.50;4.10;;;;;;;28.15;28.82;99416.22;7052686;28;20189;-83
2022/05/09 12:19:34;;;;;;;4.23;3.87;;;;;;;29.40;27.12;99415.63;7046268;28;20244;-82
2022/05/09 12:22:57;;;;;;;4.87;4.47;;;;;;;27.89;28.44;99398.34;7046843;28;20227;-82
2022/05/09 12:26:28;;;;;;;4.50;3.67;;;;;;;27.08;30.28;99420.03;7045741;28;20210;-82
2022/05/09 12:29:52;;;;;;;7.93;4.00;;;;;;;27.27;29.46;99307.38;7045781;28;20266;-82
2022/05/09 12:33:24;;;;;;;4.73;3.97;;;;;;;28.46;29.86;99389.59;7044878;28;20238;-82
2022/05/09 12:36:46;;;;;;;4.30;3.90;;;;;;;29.13;27.74;99405.41;7047395;28;20655;-83
2022/05/09 12:40:19;;;;;;;6.20;4.03;;;;;;;28.71;29.20;99393.81;7046960;28;20205;-83
2022/05/09 12:43:44;;;;;;;5.73;4.10;;;;;;;28.68;29.54;99366.66;7038761;28;20233;-83
2022/05/09 12:47:09;;;;;;;6.00;3.80;;;;;;;28.65;28.50;99398.63;7028805;28;20231;-82
2022/05/09 12:50:34;;;;;;;5.30;4.10;;;;;;;27.34;30.77;99390.06;7046280;28;20622;-82
2022/05/09 12:53:57;;;;;;;4.30;4.00;;;;;;;25.67;33.35;99342.47;7045608;28;20307;-82
2022/05/09 12:57:33;;;;;;;5.10;4.57;;;;;;;26.73;31.81;99400.31;7045089;28;20569;-82
2022/05/09 13:01:00;;;;;;;4.43;4.07;;;;;;;27.72;29.97;99377.84;7045015;28;20189;-83
2022/05/09 13:04:25;;;;;;;4.77;4.37;;;;;;;27.32;31.60;99395.91;7039450;28;20209;-82
2022/05/09 13:07:54;;;;;;;4.50;4.20;;;;;;;27.06;30.53;99394.59;7044382;28;20204;-82
2022/05/09 13:11:19;;;;;;;7.80;4.30;;;;;;;27.50;30.42;99386.81;7044696;28;20697;-82
2022/05/09 13:14:42;;;;;;;5.07;4.00;;;;;;;27.66;30.01;99385.41;7033567;28;20632;-82
2022/05/09 13:18:07;;;;;;;5.47;3.80;;;;;;;27.78;29.83;99379.44;7029031;28;20199;-82
2022/05/09 13:21:34;;;;;;;4.50;4.00;;;;;;;27.63;29.88;99354.72;7032994;28;20230;-82
2022/05/09 13:24:56;;;;;;;4.53;4.13;;;;;;;27.64;30.25;99359.97;7026754;28;20667;-82
2022/05/09 13:28:20;;;;;;;5.03;4.10;;;;;;;26.75;32.03;99367.63;7006972;28;20205;-83
2022/05/09 13:31:44;;;;;;;5.60;4.17;;;;;;;28.16;29.53;99331.06;7029965;28;20228;-82
2022/05/09 13:35:25;;;;;;;5.80;3.67;;;;;;;28.01;30.49;99348.78;7032758;28;20212;-82
2022/05/09 13:38:49;;;;;;;4.27;3.90;;;;;;;28.43;29.49;99353.31;7032037;28;20192;-82
2022/05/09 13:42:21;;;;;;;4.30;3.90;;;;;;;28.09;29.35;99342.56;7032661;28;20229;-82
2022/05/09 13:45:42;;;;;;;4.40;4.00;;;;;;;28.43;28.99;99334.69;7038978;28;20191;-83
2022/05/09 13:49:07;;;;;;;4.00;3.60;;;;;;;28.60;28.33;99328.53;7038066;28;20206;-82
2022/05/09 13:52:32;;;;;;;6.33;4.00;;;;;;;29.58;28.64;99331.28;7027506;28;20702;-83
2022/05/09 13:55:57;;;;;;;4.23;3.90;;;;;;;30.42;25.87;99324.63;7029429;28;20275;-83
2022/05/09 13:59:19;;;;;;;4.90;3.37;;;;;;;30.20;26.63;99324.69;7018529;28;20238;-83
2022/05/09 14:02:40;;;;;;;3.80;3.50;;;;;;;29.55;26.89;99321.63;7010338;28;20701;-83
2022/05/09 14:06:07;;;;;;;6.37;3.53;;;;;;;28.41;28.13;99286.19;7010125;28;20321;-83
2022/05/09 14:09:29;;;;;;;3.97;3.63;;;;;;;28.87;26.83;99323.78;7010719;28;20562;-83
2022/05/09 14:12:53;;;;;;;4.53;3.90;;;;;;;29.16;25.73;99315.91;7010428;28;20229;-83
2022/05/09 14:16:19;;;;;;;4.63;3.93;;;;;;;28.80;27.48;99315.03;7009085;28;20290;-83
2022/05/09 14:19:40;;;;;;;4.60;4.20;;;;;;;29.27;26.27;99308.16;7009694;28;20216;-83
2022/05/09 14:23:03;;;;;;;4.87;4.30;;;;;;;27.79;28.25;99265.47;7009889;28;20357;-84
2022/05/09 14:30:13;;;;;;;4.17;3.77;;;;;;;29.93;25.99;99261.69;7009795;28;20193;-83
2022/05/09 14:33:36;;;;;;;5.43;4.20;;;;;;;30.23;26.21;99282.28;7009308;28;20233;-83
2022/05/09 14:37:20;;;;;;;5.80;3.90;;;;;;;29.45;26.54;99288.53;7009917;28;20197;-84
2022/05/09 14:40:43;;;;;;;4.60;3.90;;;;;;;29.30;27.04;99288.88;7009735;28;20495;-84
2022/05/09 14:44:19;;;;;;;4.20;3.90;;;;;;;29.90;26.31;99259.53;7009928;28;20230;-83
2022/05/09 14:47:44;;;;;;;4.13;3.77;;;;;;;30.10;26.61;99288.78;7009027;28;20287;-83
2022/05/09 14:51:06;;;;;;;4.10;3.80;;;;;;;30.38;25.66;99276.31;7028399;28;20202;-83
2022/05/09 14:54:29;;;;;;;4.23;3.83;;;;;;;30.53;25.70;99278.63;7020586;28;20763;-84
2022/05/09 14:57:52;;;;;;;6.20;4.00;;;;;;;29.68;26.28;99281.00;7008839;28;20215;-83
2022/05/09 15:01:24;;;;;;;4.10;3.80;;;;;;;29.48;27.06;99278.75;7009256;28;20202;-83
2022/05/09 15:04:48;;;;;;;3.90;3.60;;;;;;;29.58;26.49;99240.41;7034231;28;20218;-83
2022/05/09 15:08:09;;;;;;;4.90;3.60;;;;;;;28.76;27.05;99266.81;7037037;28;20209;-83
2022/05/09 15:11:31;;;;;;;4.27;3.83;;;;;;;28.97;26.54;99192.25;7037936;28;20235;-83
2022/05/09 15:14:54;;;;;;;5.00;3.87;;;;;;;28.39;27.90;99269.03;7037283;28;20224;-83
2022/05/09 15:18:15;;;;;;;7.33;3.80;;;;;;;28.51;28.08;99244.38;7033687;28;20281;-83
2022/05/09 15:21:38;;;;;;;4.90;4.10;;;;;;;28.91;26.91;99262.88;7024901;28;20258;-83
2022/05/09 15:25:00;;;;;;;5.83;4.20;;;;;;;28.59;28.14;99261.09;7028314;28;20204;-83
2022/05/09 15:28:22;;;;;;;4.30;3.90;;;;;;;28.85;28.03;99203.84;7011512;28;20212;-83
2022/05/09 15:31:44;;;;;;;4.13;3.77;;;;;;;28.74;27.50;99205.25;7008044;28;20234;-83
2022/05/09 15:35:06;;;;;;;5.53;4.10;;;;;;;28.63;26.93;99256.59;7008648;28;20229;-83
2022/05/09 15:38:29;;;;;;;4.20;3.67;;;;;;;29.16;26.79;99218.69;7008356;28;20208;-83
2022/05/09 15:41:53;;;;;;;5.90;4.03;;;;;;;29.39;26.22;99237.00;7008111;28;20307;-82
2022/05/09 15:45:17;;;;;;;4.03;3.63;;;;;;;29.45;27.14;99240.44;7007874;28;20217;-83
2022/05/09 15:48:40;;;;;;;4.33;3.97;;;;;;;29.32;25.92;99174.69;7012856;28;20240;-83
2022/05/09 15:52:02;;;;;;;4.30;3.90;;;;;;;29.44;26.29;99164.63;7031645;28;20270;-83
2022/05/09 15:55:25;;;;;;;3.93;3.57;;;;;;;30.02;26.32;99237.50;7036202;28;20499;-83
2022/05/09 15:58:50;;;;;;;4.77;3.93;;;;;;;29.32;25.37;99213.56;7035086;28;20217;-84
2022/05/09 16:02:12;;;;;;;4.47;3.50;;;;;;;29.40;24.85;99229.47;7027664;28;20225;-83
2022/05/09 16:11:23;;;;;;;4.83;3.80;;;;;;;29.27;25.69;99202.59;7020952;28;20202;-82
2022/05/09 16:12:58;;;;;;;4.50;3.63;;;;;;;29.77;24.91;99227.09;7016157;28;20240;-82
2022/05/09 16:16:21;;;;;;;7.37;4.50;;;;;;;29.92;25.53;99217.50;7035126;28;20230;-82
2022/05/09 16:19:45;;;;;;;3.70;3.40;;;;;;;30.08;25.27;99230.66;7036213;28;20213;-81